Stevens Point, WI

4:45 AM CDT on September 23, 2014 (GMT -0500)
Stevens Point Municipal | Change Station
CLOSE
Current Station
Airport
Location: Stevens Point,
Elevation: 1109 ft
Nearby Weather Stations

Elev 1109 ft 44.54 °N, 89.53 °W | Updated 10 minutes ago

Clear
Clear
40 °F
Feels Like 40 °F
N
0
Wind Variable Wind from North

Today
High -- | Low -- °F
--% Chance of Precip.
Yesterday
High -- | Low -- °F
Precip. -- in
6:46 AM 6:53 PM
Waning Crescent, 1% visible
Pressure 30.25 in
Visibility 10.0 miles
Clouds Clear
Dew Point 38 °F
Humidity 94%
Rainfall 0.00 in
Snow Depth Not available.
UV 0 out of 12
Pollen 3.20 out of 12
Air Quality Not available.
Flu Activity Not available.
METAR KSTE 230935Z AUTO 00000KT 10SM CLR 05/04 A3025 RMK AO2 T00450036

More Conditions Fewer Conditions

Pressure 30.25 in
Visibility 10.0 miles
Clouds Clear
Dew Point 38 °F
Humidity 94%
Rainfall 0.00 in
Snow Depth Not available.
UV 0 out of 12
Pollen 3.20 out of 12
Air Quality Not available.
Flu Activity Not available.
METAR KSTE 230935Z AUTO 00000KT 10SM CLR 05/04 A3025 RMK AO2 T00450036

More Conditions Fewer Conditions

10-Day Weather Forecast

Almanac

Astronomy

Sep. 23, 2014 Rise Set
Actual Time 6:46 AM CDT 6:53 PM CDT
Civil Twilight 6:17 AM CDT 7:22 PM CDT
Nautical Twilight 5:43 AM CDT 7:56 PM CDT
Astronomical Twilight 5:08 AM CDT 8:31 PM CDT
Moon 6:10 AM CDT 6:32 PM CDT
Length of Visible Light 13h 05m
Length of Day
12h 07m
Tomorrow will be 3m 4s shorter.
Waning Crescent, 1% of the Moon is Illuminated
Today
Waning Crescent
Sep 24
New
Oct 1
First Quarter
Oct 8
Full
Oct 15
Last Quarter

Today's Extremes

State Highs State Lows

Community

WunderPhotos

Upload Photos

1,755,644 photos uploaded!

Nearby

Snow Depth

Station Depth Elevation
No new snow has been reported.

Earthquake Activity

City Distance Mag. Time & Date
No recent earthquake activity has been reported nearby.
Minimum magnitude displayed is 2.5.

Coastal Water Temperatures

Place Temperature
No Stations Reporting

Nearby Weather Stations